sensor_id;sensor_type;location;lat;lon;timestamp;P1;durP1;ratioP1;P2;durP2;ratioP2
30874;SDS011;17581;43.222;27.924;2023-05-10T00:01:46;10.23;;;6.00;;
30874;SDS011;17581;43.222;27.924;2023-05-10T00:04:12;13.52;;;5.65;;
30874;SDS011;17581;43.222;27.924;2023-05-10T00:06:37;22.70;;;6.85;;
30874;SDS011;17581;43.222;27.924;2023-05-10T00:09:03;16.42;;;6.10;;
30874;SDS011;17581;43.222;27.924;2023-05-10T00:11:28;10.82;;;5.68;;
30874;SDS011;17581;43.222;27.924;2023-05-10T00:13:54;14.80;;;5.90;;
30874;SDS011;17581;43.222;27.924;2023-05-10T00:16:20;15.73;;;5.65;;
30874;SDS011;17581;43.222;27.924;2023-05-10T00:18:45;9.73;;;5.60;;
30874;SDS011;17581;43.222;27.924;2023-05-10T00:21:11;14.65;;;6.10;;
30874;SDS011;17581;43.222;27.924;2023-05-10T00:23:36;13.20;;;5.65;;
30874;SDS011;17581;43.222;27.924;2023-05-10T00:26:02;12.23;;;5.20;;
30874;SDS011;17581;43.222;27.924;2023-05-10T00:28:27;14.98;;;5.60;;
30874;SDS011;17581;43.222;27.924;2023-05-10T00:30:53;17.00;;;5.57;;
30874;SDS011;17581;43.222;27.924;2023-05-10T00:33:19;10.82;;;6.45;;
30874;SDS011;17581;43.222;27.924;2023-05-10T00:35:44;16.15;;;6.05;;
30874;SDS011;17581;43.222;27.924;2023-05-10T00:38:10;7.57;;;5.43;;
30874;SDS011;17581;43.222;27.924;2023-05-10T00:40:36;16.23;;;6.28;;
30874;SDS011;17581;43.222;27.924;2023-05-10T00:43:02;10.00;;;5.68;;
30874;SDS011;17581;43.222;27.924;2023-05-10T00:45:28;19.20;;;6.10;;
30874;SDS011;17581;43.222;27.924;2023-05-10T00:47:55;15.15;;;5.72;;
30874;SDS011;17581;43.222;27.924;2023-05-10T00:50:24;9.77;;;6.07;;
30874;SDS011;17581;43.222;27.924;2023-05-10T00:52:49;15.15;;;5.80;;
30874;SDS011;17581;43.222;27.924;2023-05-10T00:55:15;12.57;;;6.32;;
30874;SDS011;17581;43.222;27.924;2023-05-10T00:57:41;24.60;;;6.30;;
30874;SDS011;17581;43.222;27.924;2023-05-10T01:00:07;7.25;;;5.88;;
30874;SDS011;17581;43.222;27.924;2023-05-10T01:02:33;9.20;;;5.47;;
30874;SDS011;17581;43.222;27.924;2023-05-10T01:05:00;14.45;;;6.28;;
30874;SDS011;17581;43.222;27.924;2023-05-10T01:07:28;10.85;;;6.60;;
30874;SDS011;17581;43.222;27.924;2023-05-10T01:09:54;15.32;;;5.72;;
30874;SDS011;17581;43.222;27.924;2023-05-10T01:12:19;8.73;;;5.80;;
30874;SDS011;17581;43.222;27.924;2023-05-10T01:14:45;18.38;;;6.43;;
30874;SDS011;17581;43.222;27.924;2023-05-10T01:17:12;14.07;;;5.88;;
30874;SDS011;17581;43.222;27.924;2023-05-10T01:19:38;13.70;;;7.35;;
30874;SDS011;17581;43.222;27.924;2023-05-10T01:27:38;11.43;;;6.70;;
30874;SDS011;17581;43.222;27.924;2023-05-10T01:35:32;13.60;;;7.00;;
30874;SDS011;17581;43.222;27.924;2023-05-10T01:38:02;17.33;;;7.78;;
30874;SDS011;17581;43.222;27.924;2023-05-10T01:40:48;13.57;;;8.23;;
30874;SDS011;17581;43.222;27.924;2023-05-10T01:43:20;15.32;;;7.70;;
30874;SDS011;17581;43.222;27.924;2023-05-10T01:46:07;15.00;;;7.30;;
30874;SDS011;17581;43.222;27.924;2023-05-10T01:48:44;14.90;;;7.88;;
30874;SDS011;17581;43.222;27.924;2023-05-10T01:51:17;22.95;;;7.80;;
30874;SDS011;17581;43.222;27.924;2023-05-10T01:53:46;20.90;;;8.77;;
30874;SDS011;17581;43.222;27.924;2023-05-10T01:56:13;27.10;;;11.35;;
30874;SDS011;17581;43.222;27.924;2023-05-10T01:58:41;28.30;;;9.38;;
30874;SDS011;17581;43.222;27.924;2023-05-10T02:01:10;15.73;;;9.32;;
30874;SDS011;17581;43.222;27.924;2023-05-10T02:03:37;25.92;;;9.60;;
30874;SDS011;17581;43.222;27.924;2023-05-10T02:06:05;14.50;;;9.27;;
30874;SDS011;17581;43.222;27.924;2023-05-10T02:08:31;22.52;;;10.38;;
30874;SDS011;17581;43.222;27.924;2023-05-10T02:11:01;20.13;;;9.82;;
30874;SDS011;17581;43.222;27.924;2023-05-10T02:13:27;19.15;;;9.13;;
30874;SDS011;17581;43.222;27.924;2023-05-10T02:15:55;21.13;;;10.50;;
30874;SDS011;17581;43.222;27.924;2023-05-10T02:18:22;20.42;;;9.52;;
30874;SDS011;17581;43.222;27.924;2023-05-10T02:20:50;17.73;;;10.02;;
30874;SDS011;17581;43.222;27.924;2023-05-10T02:23:18;23.73;;;10.68;;
30874;SDS011;17581;43.222;27.924;2023-05-10T02:25:46;16.30;;;9.45;;
30874;SDS011;17581;43.222;27.924;2023-05-10T02:28:13;13.43;;;9.65;;
30874;SDS011;17581;43.222;27.924;2023-05-10T02:30:40;23.17;;;9.85;;
30874;SDS011;17581;43.222;27.924;2023-05-10T02:33:06;23.55;;;11.98;;
30874;SDS011;17581;43.222;27.924;2023-05-10T02:35:32;24.80;;;11.70;;
30874;SDS011;17581;43.222;27.924;2023-05-10T02:37:59;78.13;;;18.13;;
30874;SDS011;17581;43.222;27.924;2023-05-10T02:40:26;23.45;;;10.77;;
30874;SDS011;17581;43.222;27.924;2023-05-10T02:42:54;17.15;;;10.23;;
30874;SDS011;17581;43.222;27.924;2023-05-10T02:45:21;24.90;;;10.70;;
30874;SDS011;17581;43.222;27.924;2023-05-10T02:47:51;17.85;;;11.27;;
30874;SDS011;17581;43.222;27.924;2023-05-10T02:50:17;24.60;;;11.85;;
30874;SDS011;17581;43.222;27.924;2023-05-10T02:52:44;29.33;;;12.05;;
30874;SDS011;17581;43.222;27.924;2023-05-10T02:55:14;19.15;;;11.23;;
30874;SDS011;17581;43.222;27.924;2023-05-10T02:58:02;35.30;;;12.95;;
30874;SDS011;17581;43.222;27.924;2023-05-10T03:00:27;21.40;;;11.80;;
30874;SDS011;17581;43.222;27.924;2023-05-10T03:02:53;16.23;;;11.13;;
30874;SDS011;17581;43.222;27.924;2023-05-10T03:05:19;25.65;;;11.68;;
30874;SDS011;17581;43.222;27.924;2023-05-10T03:07:45;23.20;;;12.07;;
30874;SDS011;17581;43.222;27.924;2023-05-10T03:10:12;20.63;;;11.40;;
30874;SDS011;17581;43.222;27.924;2023-05-10T03:15:47;19.35;;;10.70;;
30874;SDS011;17581;43.222;27.924;2023-05-10T03:18:28;17.70;;;11.15;;
30874;SDS011;17581;43.222;27.924;2023-05-10T03:20:59;26.50;;;10.93;;
30874;SDS011;17581;43.222;27.924;2023-05-10T03:23:35;19.70;;;12.15;;
30874;SDS011;17581;43.222;27.924;2023-05-10T03:26:05;25.00;;;10.82;;
30874;SDS011;17581;43.222;27.924;2023-05-10T03:28:33;31.25;;;13.45;;
30874;SDS011;17581;43.222;27.924;2023-05-10T03:31:00;22.92;;;11.38;;
30874;SDS011;17581;43.222;27.924;2023-05-10T03:33:27;18.88;;;11.15;;
30874;SDS011;17581;43.222;27.924;2023-05-10T03:35:53;14.80;;;10.75;;
30874;SDS011;17581;43.222;27.924;2023-05-10T03:38:18;20.10;;;9.40;;
30874;SDS011;17581;43.222;27.924;2023-05-10T03:40:43;26.33;;;11.48;;
30874;SDS011;17581;43.222;27.924;2023-05-10T03:43:09;23.60;;;12.52;;
30874;SDS011;17581;43.222;27.924;2023-05-10T03:45:34;24.35;;;11.30;;
30874;SDS011;17581;43.222;27.924;2023-05-10T03:48:00;51.92;;;11.10;;
30874;SDS011;17581;43.222;27.924;2023-05-10T03:50:26;21.55;;;11.10;;
30874;SDS011;17581;43.222;27.924;2023-05-10T03:52:51;31.80;;;10.57;;
30874;SDS011;17581;43.222;27.924;2023-05-10T03:55:17;30.02;;;12.43;;
30874;SDS011;17581;43.222;27.924;2023-05-10T03:57:42;21.67;;;11.13;;
30874;SDS011;17581;43.222;27.924;2023-05-10T04:00:08;23.42;;;9.65;;
30874;SDS011;17581;43.222;27.924;2023-05-10T04:02:34;20.98;;;9.07;;
30874;SDS011;17581;43.222;27.924;2023-05-10T04:05:00;32.47;;;10.02;;
30874;SDS011;17581;43.222;27.924;2023-05-10T04:07:26;15.20;;;8.43;;
30874;SDS011;17581;43.222;27.924;2023-05-10T04:09:51;33.33;;;10.10;;
30874;SDS011;17581;43.222;27.924;2023-05-10T04:12:17;27.88;;;9.38;;
30874;SDS011;17581;43.222;27.924;2023-05-10T04:14:42;41.97;;;11.23;;
30874;SDS011;17581;43.222;27.924;2023-05-10T04:17:08;18.25;;;9.20;;
30874;SDS011;17581;43.222;27.924;2023-05-10T04:19:33;63.58;;;12.23;;
30874;SDS011;17581;43.222;27.924;2023-05-10T04:21:59;38.00;;;10.60;;
30874;SDS011;17581;43.222;27.924;2023-05-10T04:24:24;38.38;;;10.75;;
30874;SDS011;17581;43.222;27.924;2023-05-10T04:26:50;52.38;;;12.02;;
30874;SDS011;17581;43.222;27.924;2023-05-10T04:29:16;32.00;;;10.25;;
30874;SDS011;17581;43.222;27.924;2023-05-10T04:31:42;15.52;;;9.32;;
30874;SDS011;17581;43.222;27.924;2023-05-10T04:34:07;34.78;;;10.52;;
30874;SDS011;17581;43.222;27.924;2023-05-10T04:36:32;16.77;;;8.45;;
30874;SDS011;17581;43.222;27.924;2023-05-10T04:39:00;22.23;;;7.88;;
30874;SDS011;17581;43.222;27.924;2023-05-10T04:41:27;22.67;;;6.95;;
30874;SDS011;17581;43.222;27.924;2023-05-10T04:43:53;20.35;;;8.35;;
30874;SDS011;17581;43.222;27.924;2023-05-10T04:46:18;30.13;;;9.13;;
30874;SDS011;17581;43.222;27.924;2023-05-10T04:48:43;22.58;;;6.80;;
30874;SDS011;17581;43.222;27.924;2023-05-10T04:51:09;12.38;;;6.47;;
30874;SDS011;17581;43.222;27.924;2023-05-10T04:53:34;20.10;;;6.20;;
30874;SDS011;17581;43.222;27.924;2023-05-10T04:56:00;36.05;;;7.65;;
30874;SDS011;17581;43.222;27.924;2023-05-10T04:58:26;18.95;;;5.55;;
30874;SDS011;17581;43.222;27.924;2023-05-10T05:00:51;44.65;;;5.95;;
30874;SDS011;17581;43.222;27.924;2023-05-10T05:03:17;34.15;;;9.57;;
30874;SDS011;17581;43.222;27.924;2023-05-10T05:05:43;17.73;;;5.70;;
30874;SDS011;17581;43.222;27.924;2023-05-10T05:08:09;33.67;;;7.40;;
30874;SDS011;17581;43.222;27.924;2023-05-10T05:10:34;25.08;;;6.70;;
30874;SDS011;17581;43.222;27.924;2023-05-10T05:13:00;29.35;;;5.53;;
30874;SDS011;17581;43.222;27.924;2023-05-10T05:15:26;10.75;;;3.70;;
30874;SDS011;17581;43.222;27.924;2023-05-10T05:17:51;23.00;;;4.60;;
30874;SDS011;17581;43.222;27.924;2023-05-10T05:20:17;45.63;;;7.88;;
30874;SDS011;17581;43.222;27.924;2023-05-10T05:22:43;41.28;;;6.57;;
30874;SDS011;17581;43.222;27.924;2023-05-10T05:25:09;16.20;;;5.28;;
30874;SDS011;17581;43.222;27.924;2023-05-10T05:27:36;22.40;;;5.43;;
30874;SDS011;17581;43.222;27.924;2023-05-10T05:30:02;11.93;;;4.43;;
30874;SDS011;17581;43.222;27.924;2023-05-10T05:32:27;19.27;;;5.10;;
30874;SDS011;17581;43.222;27.924;2023-05-10T05:34:53;25.65;;;5.35;;
30874;SDS011;17581;43.222;27.924;2023-05-10T05:37:19;40.22;;;6.60;;
30874;SDS011;17581;43.222;27.924;2023-05-10T05:39:46;14.07;;;4.53;;
30874;SDS011;17581;43.222;27.924;2023-05-10T05:42:12;32.42;;;5.57;;
30874;SDS011;17581;43.222;27.924;2023-05-10T05:44:38;6.43;;;2.92;;
30874;SDS011;17581;43.222;27.924;2023-05-10T05:47:04;12.30;;;4.05;;
30874;SDS011;17581;43.222;27.924;2023-05-10T05:49:31;17.92;;;4.10;;
30874;SDS011;17581;43.222;27.924;2023-05-10T05:52:00;14.60;;;5.63;;
30874;SDS011;17581;43.222;27.924;2023-05-10T05:54:26;18.90;;;4.35;;
30874;SDS011;17581;43.222;27.924;2023-05-10T05:56:55;19.70;;;5.03;;
30874;SDS011;17581;43.222;27.924;2023-05-10T05:59:21;24.92;;;5.53;;
30874;SDS011;17581;43.222;27.924;2023-05-10T06:01:47;11.23;;;3.83;;
30874;SDS011;17581;43.222;27.924;2023-05-10T06:04:13;11.93;;;3.40;;
30874;SDS011;17581;43.222;27.924;2023-05-10T06:06:39;24.75;;;4.90;;
30874;SDS011;17581;43.222;27.924;2023-05-10T06:09:04;16.15;;;5.25;;
30874;SDS011;17581;43.222;27.924;2023-05-10T06:11:30;21.25;;;6.38;;
30874;SDS011;17581;43.222;27.924;2023-05-10T06:13:57;11.57;;;4.05;;
30874;SDS011;17581;43.222;27.924;2023-05-10T06:16:23;12.38;;;4.22;;
30874;SDS011;17581;43.222;27.924;2023-05-10T06:18:48;12.88;;;5.30;;
30874;SDS011;17581;43.222;27.924;2023-05-10T06:21:14;13.38;;;5.40;;
30874;SDS011;17581;43.222;27.924;2023-05-10T06:23:41;17.05;;;4.07;;
30874;SDS011;17581;43.222;27.924;2023-05-10T06:26:06;13.10;;;4.85;;
30874;SDS011;17581;43.222;27.924;2023-05-10T06:28:32;14.40;;;4.72;;
30874;SDS011;17581;43.222;27.924;2023-05-10T06:30:58;16.50;;;5.13;;
30874;SDS011;17581;43.222;27.924;2023-05-10T06:33:24;47.58;;;11.38;;
30874;SDS011;17581;43.222;27.924;2023-05-10T06:35:49;10.93;;;5.78;;
30874;SDS011;17581;43.222;27.924;2023-05-10T06:38:15;10.73;;;6.18;;
30874;SDS011;17581;43.222;27.924;2023-05-10T06:40:41;20.55;;;4.55;;
30874;SDS011;17581;43.222;27.924;2023-05-10T06:43:07;18.30;;;5.65;;
30874;SDS011;17581;43.222;27.924;2023-05-10T06:45:32;12.38;;;4.63;;
30874;SDS011;17581;43.222;27.924;2023-05-10T06:47:58;13.85;;;4.28;;
30874;SDS011;17581;43.222;27.924;2023-05-10T06:50:23;18.15;;;5.22;;
30874;SDS011;17581;43.222;27.924;2023-05-10T06:52:49;13.82;;;4.28;;
30874;SDS011;17581;43.222;27.924;2023-05-10T06:55:14;9.77;;;3.95;;
30874;SDS011;17581;43.222;27.924;2023-05-10T06:57:40;15.25;;;4.57;;
30874;SDS011;17581;43.222;27.924;2023-05-10T07:00:05;15.15;;;4.38;;
30874;SDS011;17581;43.222;27.924;2023-05-10T07:02:31;30.23;;;5.13;;
30874;SDS011;17581;43.222;27.924;2023-05-10T07:04:57;34.20;;;5.43;;
30874;SDS011;17581;43.222;27.924;2023-05-10T07:07:22;12.52;;;4.30;;
30874;SDS011;17581;43.222;27.924;2023-05-10T07:09:48;9.02;;;3.55;;
30874;SDS011;17581;43.222;27.924;2023-05-10T07:12:14;12.73;;;4.40;;
30874;SDS011;17581;43.222;27.924;2023-05-10T07:14:40;12.55;;;4.32;;
30874;SDS011;17581;43.222;27.924;2023-05-10T07:17:06;30.80;;;5.18;;
30874;SDS011;17581;43.222;27.924;2023-05-10T07:19:31;33.13;;;7.68;;
30874;SDS011;17581;43.222;27.924;2023-05-10T07:21:57;10.32;;;4.10;;
30874;SDS011;17581;43.222;27.924;2023-05-10T07:24:23;18.20;;;4.30;;
30874;SDS011;17581;43.222;27.924;2023-05-10T07:26:49;7.80;;;3.78;;
30874;SDS011;17581;43.222;27.924;2023-05-10T07:29:15;20.08;;;5.80;;
30874;SDS011;17581;43.222;27.924;2023-05-10T07:31:40;27.50;;;5.75;;
30874;SDS011;17581;43.222;27.924;2023-05-10T07:34:09;32.45;;;6.05;;
30874;SDS011;17581;43.222;27.924;2023-05-10T07:36:35;22.67;;;3.95;;
30874;SDS011;17581;43.222;27.924;2023-05-10T07:39:01;17.52;;;4.25;;
30874;SDS011;17581;43.222;27.924;2023-05-10T07:41:26;53.92;;;8.30;;
30874;SDS011;17581;43.222;27.924;2023-05-10T07:43:52;9.25;;;4.00;;
30874;SDS011;17581;43.222;27.924;2023-05-10T07:46:17;10.75;;;4.25;;
30874;SDS011;17581;43.222;27.924;2023-05-10T07:48:44;28.42;;;4.93;;
30874;SDS011;17581;43.222;27.924;2023-05-10T07:51:10;15.35;;;5.57;;
30874;SDS011;17581;43.222;27.924;2023-05-10T07:53:35;8.27;;;3.53;;
30874;SDS011;17581;43.222;27.924;2023-05-10T07:56:19;14.25;;;4.03;;
30874;SDS011;17581;43.222;27.924;2023-05-10T07:58:46;16.08;;;4.30;;
30874;SDS011;17581;43.222;27.924;2023-05-10T08:01:11;27.70;;;6.97;;
30874;SDS011;17581;43.222;27.924;2023-05-10T08:03:37;16.80;;;5.70;;
30874;SDS011;17581;43.222;27.924;2023-05-10T08:06:05;15.75;;;4.40;;
30874;SDS011;17581;43.222;27.924;2023-05-10T08:08:31;47.78;;;5.75;;
30874;SDS011;17581;43.222;27.924;2023-05-10T08:10:57;21.98;;;4.97;;
30874;SDS011;17581;43.222;27.924;2023-05-10T08:13:23;15.27;;;3.53;;
30874;SDS011;17581;43.222;27.924;2023-05-10T08:15:48;40.13;;;5.38;;
30874;SDS011;17581;43.222;27.924;2023-05-10T08:18:14;24.67;;;5.03;;
30874;SDS011;17581;43.222;27.924;2023-05-10T08:20:39;11.65;;;4.00;;
30874;SDS011;17581;43.222;27.924;2023-05-10T08:23:05;32.33;;;5.40;;
30874;SDS011;17581;43.222;27.924;2023-05-10T08:25:31;11.18;;;3.72;;
30874;SDS011;17581;43.222;27.924;2023-05-10T08:27:56;4.63;;;3.08;;
30874;SDS011;17581;43.222;27.924;2023-05-10T08:30:22;8.75;;;3.88;;
30874;SDS011;17581;43.222;27.924;2023-05-10T08:32:49;11.82;;;3.80;;
30874;SDS011;17581;43.222;27.924;2023-05-10T08:35:15;29.02;;;5.32;;
30874;SDS011;17581;43.222;27.924;2023-05-10T08:37:41;20.63;;;7.43;;
30874;SDS011;17581;43.222;27.924;2023-05-10T08:40:06;13.98;;;3.72;;
30874;SDS011;17581;43.222;27.924;2023-05-10T08:42:36;8.27;;;3.70;;
30874;SDS011;17581;43.222;27.924;2023-05-10T08:45:06;12.48;;;3.50;;
30874;SDS011;17581;43.222;27.924;2023-05-10T08:47:32;32.53;;;5.55;;
30874;SDS011;17581;43.222;27.924;2023-05-10T08:50:00;12.35;;;3.67;;
30874;SDS011;17581;43.222;27.924;2023-05-10T08:52:28;12.20;;;3.38;;
30874;SDS011;17581;43.222;27.924;2023-05-10T08:54:56;14.43;;;3.53;;
30874;SDS011;17581;43.222;27.924;2023-05-10T08:57:21;15.85;;;4.55;;
30874;SDS011;17581;43.222;27.924;2023-05-10T08:59:47;11.27;;;4.15;;
30874;SDS011;17581;43.222;27.924;2023-05-10T09:02:13;22.95;;;3.97;;
30874;SDS011;17581;43.222;27.924;2023-05-10T09:04:39;15.25;;;4.20;;
30874;SDS011;17581;43.222;27.924;2023-05-10T09:07:06;13.30;;;3.55;;
30874;SDS011;17581;43.222;27.924;2023-05-10T09:09:32;14.93;;;4.60;;
30874;SDS011;17581;43.222;27.924;2023-05-10T09:11:58;11.10;;;4.15;;
30874;SDS011;17581;43.222;27.924;2023-05-10T09:14:24;28.13;;;4.82;;
30874;SDS011;17581;43.222;27.924;2023-05-10T09:16:50;19.40;;;4.00;;
30874;SDS011;17581;43.222;27.924;2023-05-10T09:19:16;24.70;;;4.75;;
30874;SDS011;17581;43.222;27.924;2023-05-10T09:21:41;35.00;;;19.45;;
30874;SDS011;17581;43.222;27.924;2023-05-10T09:24:08;12.18;;;4.20;;
30874;SDS011;17581;43.222;27.924;2023-05-10T09:26:34;16.60;;;4.53;;
30874;SDS011;17581;43.222;27.924;2023-05-10T09:29:00;27.25;;;4.65;;
30874;SDS011;17581;43.222;27.924;2023-05-10T09:34:29;15.82;;;4.40;;
30874;SDS011;17581;43.222;27.924;2023-05-10T09:36:58;9.43;;;4.40;;
30874;SDS011;17581;43.222;27.924;2023-05-10T09:41:57;23.30;;;5.28;;
30874;SDS011;17581;43.222;27.924;2023-05-10T09:44:31;22.65;;;5.20;;
30874;SDS011;17581;43.222;27.924;2023-05-10T09:46:58;19.95;;;3.97;;
30874;SDS011;17581;43.222;27.924;2023-05-10T09:49:24;11.82;;;3.80;;
30874;SDS011;17581;43.222;27.924;2023-05-10T09:52:07;13.88;;;3.60;;
30874;SDS011;17581;43.222;27.924;2023-05-10T09:54:33;16.90;;;3.85;;
30874;SDS011;17581;43.222;27.924;2023-05-10T09:57:00;13.98;;;4.07;;
30874;SDS011;17581;43.222;27.924;2023-05-10T09:59:26;20.30;;;4.32;;
30874;SDS011;17581;43.222;27.924;2023-05-10T10:01:56;7.78;;;3.88;;
30874;SDS011;17581;43.222;27.924;2023-05-10T10:04:23;27.42;;;4.63;;
30874;SDS011;17581;43.222;27.924;2023-05-10T10:06:58;18.67;;;4.47;;
30874;SDS011;17581;43.222;27.924;2023-05-10T10:09:28;15.65;;;4.32;;
30874;SDS011;17581;43.222;27.924;2023-05-10T10:11:54;17.52;;;6.03;;
30874;SDS011;17581;43.222;27.924;2023-05-10T10:14:20;23.55;;;4.25;;
30874;SDS011;17581;43.222;27.924;2023-05-10T10:16:46;14.10;;;3.28;;
30874;SDS011;17581;43.222;27.924;2023-05-10T10:19:13;10.98;;;3.85;;
30874;SDS011;17581;43.222;27.924;2023-05-10T10:21:39;14.20;;;3.72;;
30874;SDS011;17581;43.222;27.924;2023-05-10T10:24:05;12.32;;;3.20;;
30874;SDS011;17581;43.222;27.924;2023-05-10T10:26:33;19.48;;;3.30;;
30874;SDS011;17581;43.222;27.924;2023-05-10T10:29:01;17.17;;;4.40;;
30874;SDS011;17581;43.222;27.924;2023-05-10T10:32:19;17.88;;;3.83;;
30874;SDS011;17581;43.222;27.924;2023-05-10T10:34:49;31.10;;;4.63;;
30874;SDS011;17581;43.222;27.924;2023-05-10T10:37:14;21.40;;;3.30;;
30874;SDS011;17581;43.222;27.924;2023-05-10T10:39:40;51.90;;;9.23;;
30874;SDS011;17581;43.222;27.924;2023-05-10T10:42:06;22.60;;;4.18;;
30874;SDS011;17581;43.222;27.924;2023-05-10T10:54:59;20.08;;;4.35;;
30874;SDS011;17581;43.222;27.924;2023-05-10T10:57:55;25.05;;;4.53;;
30874;SDS011;17581;43.222;27.924;2023-05-10T11:00:31;6.72;;;2.95;;
30874;SDS011;17581;43.222;27.924;2023-05-10T11:03:10;18.30;;;3.30;;
30874;SDS011;17581;43.222;27.924;2023-05-10T11:05:40;15.10;;;3.53;;
30874;SDS011;17581;43.222;27.924;2023-05-10T11:08:10;16.92;;;4.70;;
30874;SDS011;17581;43.222;27.924;2023-05-10T11:10:53;16.83;;;3.67;;
30874;SDS011;17581;43.222;27.924;2023-05-10T11:13:31;25.48;;;4.57;;
30874;SDS011;17581;43.222;27.924;2023-05-10T11:16:13;13.95;;;3.65;;
30874;SDS011;17581;43.222;27.924;2023-05-10T11:19:04;14.45;;;3.13;;
30874;SDS011;17581;43.222;27.924;2023-05-10T11:21:33;22.42;;;4.20;;
30874;SDS011;17581;43.222;27.924;2023-05-10T11:24:12;23.85;;;4.00;;
30874;SDS011;17581;43.222;27.924;2023-05-10T11:26:39;22.48;;;4.32;;
30874;SDS011;17581;43.222;27.924;2023-05-10T11:29:04;19.38;;;3.88;;
30874;SDS011;17581;43.222;27.924;2023-05-10T11:31:30;15.05;;;4.65;;
30874;SDS011;17581;43.222;27.924;2023-05-10T11:33:57;12.82;;;3.72;;
30874;SDS011;17581;43.222;27.924;2023-05-10T11:36:32;16.73;;;4.32;;
30874;SDS011;17581;43.222;27.924;2023-05-10T11:38:58;8.68;;;4.47;;
30874;SDS011;17581;43.222;27.924;2023-05-10T11:41:24;26.25;;;3.80;;
30874;SDS011;17581;43.222;27.924;2023-05-10T11:43:54;24.00;;;4.97;;
30874;SDS011;17581;43.222;27.924;2023-05-10T11:46:24;9.82;;;3.35;;
30874;SDS011;17581;43.222;27.924;2023-05-10T11:48:52;9.60;;;3.38;;
30874;SDS011;17581;43.222;27.924;2023-05-10T11:51:20;9.38;;;3.97;;
30874;SDS011;17581;43.222;27.924;2023-05-10T11:53:46;14.70;;;3.75;;
30874;SDS011;17581;43.222;27.924;2023-05-10T11:56:12;12.65;;;3.65;;
30874;SDS011;17581;43.222;27.924;2023-05-10T11:58:38;23.35;;;4.55;;
30874;SDS011;17581;43.222;27.924;2023-05-10T12:01:04;9.57;;;3.28;;
30874;SDS011;17581;43.222;27.924;2023-05-10T12:03:31;25.77;;;4.80;;
30874;SDS011;17581;43.222;27.924;2023-05-10T12:05:58;13.00;;;4.32;;
30874;SDS011;17581;43.222;27.924;2023-05-10T12:08:25;7.68;;;3.85;;
30874;SDS011;17581;43.222;27.924;2023-05-10T12:10:51;13.45;;;3.97;;
30874;SDS011;17581;43.222;27.924;2023-05-10T12:13:18;18.85;;;4.15;;
30874;SDS011;17581;43.222;27.924;2023-05-10T12:15:45;36.08;;;4.28;;
30874;SDS011;17581;43.222;27.924;2023-05-10T12:18:11;12.57;;;4.32;;
30874;SDS011;17581;43.222;27.924;2023-05-10T12:20:37;13.45;;;4.75;;
30874;SDS011;17581;43.222;27.924;2023-05-10T12:23:03;29.33;;;4.75;;
30874;SDS011;17581;43.222;27.924;2023-05-10T12:25:31;11.98;;;4.05;;
30874;SDS011;17581;43.222;27.924;2023-05-10T12:28:02;14.63;;;4.28;;
30874;SDS011;17581;43.222;27.924;2023-05-10T12:30:30;16.85;;;4.35;;
30874;SDS011;17581;43.222;27.924;2023-05-10T12:33:01;10.77;;;3.63;;
30874;SDS011;17581;43.222;27.924;2023-05-10T12:35:31;21.90;;;4.35;;
30874;SDS011;17581;43.222;27.924;2023-05-10T12:37:57;17.45;;;5.22;;
30874;SDS011;17581;43.222;27.924;2023-05-10T12:40:23;20.05;;;4.28;;
30874;SDS011;17581;43.222;27.924;2023-05-10T12:42:48;12.93;;;3.80;;
30874;SDS011;17581;43.222;27.924;2023-05-10T12:45:14;15.95;;;4.45;;
30874;SDS011;17581;43.222;27.924;2023-05-10T12:47:39;11.25;;;3.70;;
30874;SDS011;17581;43.222;27.924;2023-05-10T12:50:05;32.67;;;6.63;;
30874;SDS011;17581;43.222;27.924;2023-05-10T12:52:31;29.95;;;4.18;;
30874;SDS011;17581;43.222;27.924;2023-05-10T12:54:57;11.15;;;6.53;;
30874;SDS011;17581;43.222;27.924;2023-05-10T12:57:23;11.90;;;4.70;;
30874;SDS011;17581;43.222;27.924;2023-05-10T12:59:49;12.23;;;3.65;;
30874;SDS011;17581;43.222;27.924;2023-05-10T13:02:15;7.50;;;3.75;;
30874;SDS011;17581;43.222;27.924;2023-05-10T13:04:42;18.48;;;3.97;;
30874;SDS011;17581;43.222;27.924;2023-05-10T13:07:08;11.32;;;3.17;;
30874;SDS011;17581;43.222;27.924;2023-05-10T13:09:34;10.88;;;3.17;;
30874;SDS011;17581;43.222;27.924;2023-05-10T13:12:00;8.45;;;3.08;;
30874;SDS011;17581;43.222;27.924;2023-05-10T13:14:25;11.57;;;3.47;;
30874;SDS011;17581;43.222;27.924;2023-05-10T13:16:51;6.75;;;3.10;;
30874;SDS011;17581;43.222;27.924;2023-05-10T13:19:16;17.77;;;3.85;;
30874;SDS011;17581;43.222;27.924;2023-05-10T13:21:42;5.47;;;3.25;;
30874;SDS011;17581;43.222;27.924;2023-05-10T13:24:09;7.90;;;4.15;;
30874;SDS011;17581;43.222;27.924;2023-05-10T13:26:36;14.35;;;3.80;;
30874;SDS011;17581;43.222;27.924;2023-05-10T13:29:02;37.20;;;5.35;;
30874;SDS011;17581;43.222;27.924;2023-05-10T13:31:28;19.58;;;3.58;;
30874;SDS011;17581;43.222;27.924;2023-05-10T13:33:53;60.55;;;11.82;;
30874;SDS011;17581;43.222;27.924;2023-05-10T13:36:19;14.57;;;3.13;;
30874;SDS011;17581;43.222;27.924;2023-05-10T13:38:44;23.77;;;4.45;;
30874;SDS011;17581;43.222;27.924;2023-05-10T13:41:10;11.77;;;3.33;;
30874;SDS011;17581;43.222;27.924;2023-05-10T13:43:36;9.27;;;3.50;;
30874;SDS011;17581;43.222;27.924;2023-05-10T13:46:01;13.02;;;3.67;;
30874;SDS011;17581;43.222;27.924;2023-05-10T13:48:27;16.65;;;3.92;;
30874;SDS011;17581;43.222;27.924;2023-05-10T13:50:53;148.30;;;17.65;;
30874;SDS011;17581;43.222;27.924;2023-05-10T13:53:18;6.63;;;3.10;;
30874;SDS011;17581;43.222;27.924;2023-05-10T13:55:44;27.48;;;7.70;;
30874;SDS011;17581;43.222;27.924;2023-05-10T13:58:09;9.88;;;3.30;;
30874;SDS011;17581;43.222;27.924;2023-05-10T14:00:35;22.17;;;4.85;;
30874;SDS011;17581;43.222;27.924;2023-05-10T14:03:01;14.23;;;4.15;;
30874;SDS011;17581;43.222;27.924;2023-05-10T14:05:27;22.13;;;4.22;;
30874;SDS011;17581;43.222;27.924;2023-05-10T14:07:52;13.10;;;3.00;;
30874;SDS011;17581;43.222;27.924;2023-05-10T14:10:18;13.60;;;4.38;;
30874;SDS011;17581;43.222;27.924;2023-05-10T14:12:44;13.98;;;3.03;;
30874;SDS011;17581;43.222;27.924;2023-05-10T14:15:09;24.25;;;4.95;;
30874;SDS011;17581;43.222;27.924;2023-05-10T14:17:36;18.33;;;4.75;;
30874;SDS011;17581;43.222;27.924;2023-05-10T14:20:02;29.50;;;4.65;;
30874;SDS011;17581;43.222;27.924;2023-05-10T14:22:28;12.50;;;4.43;;
30874;SDS011;17581;43.222;27.924;2023-05-10T14:24:54;18.92;;;4.72;;
30874;SDS011;17581;43.222;27.924;2023-05-10T14:27:20;12.88;;;3.75;;
30874;SDS011;17581;43.222;27.924;2023-05-10T14:29:46;10.50;;;4.15;;
30874;SDS011;17581;43.222;27.924;2023-05-10T14:32:12;17.80;;;5.28;;
30874;SDS011;17581;43.222;27.924;2023-05-10T14:34:37;18.05;;;4.43;;
30874;SDS011;17581;43.222;27.924;2023-05-10T14:37:03;19.10;;;3.67;;
30874;SDS011;17581;43.222;27.924;2023-05-10T14:39:29;23.88;;;4.43;;
30874;SDS011;17581;43.222;27.924;2023-05-10T14:41:55;37.72;;;4.85;;
30874;SDS011;17581;43.222;27.924;2023-05-10T14:44:20;39.00;;;6.28;;
30874;SDS011;17581;43.222;27.924;2023-05-10T14:46:46;25.50;;;4.70;;
30874;SDS011;17581;43.222;27.924;2023-05-10T14:49:12;18.23;;;3.95;;
30874;SDS011;17581;43.222;27.924;2023-05-10T14:51:37;13.75;;;5.22;;